New Mount Pleasant, Indiana
Current Conditions -  °F | °C
As of 8:53 PM on Thursday 20 Nov 2014 (Local Time) from KMIE Reporting Station
Broken Clouds Broken Clouds  
Wind Chill: -10°   Ceiling: 5000
Heat Index: -4°   Visibility: 10mi
Dew Point: -9°   Wind: 13mph
Humidity: 69%   Direction: 270°W
Pressure: 30.17"   Gusts: NA
Location:  40.4312°N, 85.0058°W
Report Text: KMIE 210153Z 27011KT 10SM BKN050 M04/M09 A3017 RMK AO2 SLP227 T10391089
Loading
Personal Weather Stations






























Interactive Weather Map New forecast layout! Learn more

10-Day Weather Forecast

Advertisements
Track Severe Weather on mobile